Aeroporto :







RITROVATECI SU...

 
LOGIN :

Iscrizione | Disclaimer

   EN    FR    IT 

 









Sommario :    VFR   VFR Marginale   IFR   IFR Intensivo   IFR Molto Intensivo
Visibilità : 
Base nubi : 
>= 8 km
>= 3000ft
5 / 8 km
1000 / 3000 ft
1500m / 5 km
500 / 1000 ft
800 / 1500m
200 / 500 ft
< 800m
< 200 ft
Simboli :   Temporali  Nebbia  Neve Forte  Precipitazioni Forti  Vento > 20 kt






- Altitudine del aeroporto : 117 ft
- Codice IATA : KUS


BGKK - Kulusuk

ULTIMO METAR :
  • 211550Z 22003KT 9999 FEW037 BKN077 M07/M13 Q0980

METARs OBSOLETI :
  • 211450Z 24004KT 9999 FEW037 BKN077 M07/M13 Q0980
  • 211350Z 24003KT 9999 FEW037 BKN077 M08/M13 Q0980

TAF TAF BGKK
Valido dal 21 a 15 ore il 21 a 20 ore UTC


211412Z 2115/2120 VRB06KT 9999 SCT035 BKN090
TEMPO 2115/2120 BKN035



MetMap, La meteo Aeronautica in un colpo d'occhio ! - Copyright ORBIFLY Dicembre 2007 - Disclaimer

ORBIFLY MET'MAP TEAM :

Programmazione e sviluppo : Alexandra Zaïnal
Concezione : Baudouin d'Aumeries
Aiuto per la programmazione : Marc-Olivier Méhu
Supporto tecnico e logistico : Manuel Goepfert
Aiuto per la traduzione : Arnaldo La Scala

Contatto : metmap@orbifly.com




FONTI E CREDITI :

   NOAA